Time;durP1;ratioP1;P1;durP2;ratioP2;P2;SDS_P1;SDS_P2;PMS_P1;PMS_P2;Temp;Humidity;BMP_temperature;BMP_pressure;BME280_temperature;BME280_humidity;BME280_pressure;Samples;Min_cycle;Max_cycle;Signal;HPM_P1;HPM_P2
2023/04/27 00:00:51;;;;;;;6.82;3.83;;;;;;;;;;4975264;28;93664;-72
2023/04/27 00:03:18;;;;;;;6.00;3.40;;;;;;;;;;4966796;28;94449;-73
2023/04/27 00:05:45;;;;;;;9.93;3.88;;;;;;;;;;4970677;28;92465;-73
2023/04/27 00:08:11;;;;;;;10.85;4.28;;;;;;;;;;4977197;28;93446;-72
2023/04/27 00:10:37;;;;;;;8.25;3.97;;;;;;;;;;4974921;28;92527;-72
2023/04/27 00:13:04;;;;;;;8.02;4.30;;;;;;;;;;4974540;28;92459;-72
2023/04/27 00:15:31;;;;;;;8.45;4.28;;;;;;;;;;4972628;28;95781;-72
2023/04/27 00:17:57;;;;;;;7.07;4.20;;;;;;;;;;4975766;28;92963;-73
2023/04/27 00:20:24;;;;;;;4.60;3.75;;;;;;;;;;4975230;28;93101;-72
2023/04/27 00:22:50;;;;;;;4.40;3.40;;;;;;;;;;4963414;28;94383;-72
2023/04/27 00:25:16;;;;;;;12.13;4.10;;;;;;;;;;4974157;28;92516;-72
2023/04/27 00:27:42;;;;;;;8.23;4.03;;;;;;;;;;4973966;28;94150;-72
2023/04/27 00:30:09;;;;;;;5.43;3.60;;;;;;;;;;4977418;28;93499;-72
2023/04/27 00:32:36;;;;;;;6.85;4.00;;;;;;;;;;4974517;28;93568;-72
2023/04/27 00:35:02;;;;;;;6.80;3.63;;;;;;;;;;4975114;28;94674;-72
2023/04/27 00:37:28;;;;;;;9.75;3.97;;;;;;;;;;4974318;28;92510;-72
2023/04/27 00:39:55;;;;;;;9.38;3.63;;;;;;;;;;4973449;28;94796;-72
2023/04/27 00:42:21;;;;;;;9.35;3.60;;;;;;;;;;4963056;28;93504;-73
2023/04/27 00:44:48;;;;;;;7.38;3.78;;;;;;;;;;4968912;28;92632;-72
2023/04/27 00:47:14;;;;;;;8.80;3.78;;;;;;;;;;4964681;28;92945;-72
2023/04/27 00:49:41;;;;;;;8.65;3.55;;;;;;;;;;4974305;28;93999;-72
2023/04/27 00:52:07;;;;;;;8.23;3.75;;;;;;;;;;4975493;28;92483;-72
2023/04/27 00:54:33;;;;;;;4.22;3.60;;;;;;;;;;4973012;28;93521;-72
2023/04/27 00:56:59;;;;;;;8.27;4.00;;;;;;;;;;4974530;28;92830;-71
2023/04/27 00:59:26;;;;;;;14.80;3.90;;;;;;;;;;4974416;28;92803;-72
2023/04/27 01:01:53;;;;;;;7.07;3.47;;;;;;;;;;4973516;28;94755;-71
2023/04/27 01:04:20;;;;;;;9.75;3.80;;;;;;;;;;4972240;28;94789;-72
2023/04/27 01:06:47;;;;;;;6.60;4.05;;;;;;;;;;4973304;28;95542;-73
2023/04/27 01:09:15;;;;;;;4.47;3.25;;;;;;;;;;4972480;28;94470;-72
2023/04/27 01:11:41;;;;;;;8.00;3.95;;;;;;;;;;4961557;28;93460;-72
2023/04/27 01:14:07;;;;;;;9.30;3.95;;;;;;;;;;4957570;28;93161;-72
2023/04/27 01:16:34;;;;;;;7.78;4.00;;;;;;;;;;4971261;28;92526;-72
2023/04/27 01:19:00;;;;;;;4.45;3.58;;;;;;;;;;4956416;28;94223;-72
2023/04/27 01:21:27;;;;;;;8.57;3.75;;;;;;;;;;4961211;28;93482;-72
2023/04/27 01:23:53;;;;;;;9.20;4.13;;;;;;;;;;4959577;28;92541;-73
2023/04/27 01:26:20;;;;;;;7.05;4.22;;;;;;;;;;4973876;28;94217;-72
2023/04/27 01:28:46;;;;;;;7.35;3.90;;;;;;;;;;4972431;28;96762;-72
2023/04/27 01:31:12;;;;;;;6.45;4.00;;;;;;;;;;4973623;28;92476;-72
2023/04/27 01:33:39;;;;;;;6.15;3.95;;;;;;;;;;4973563;28;93130;-73
2023/04/27 01:36:06;;;;;;;4.95;3.95;;;;;;;;;;4976207;28;93594;-72
2023/04/27 01:38:32;;;;;;;6.53;4.05;;;;;;;;;;4972049;28;94204;-72
2023/04/27 01:41:02;;;;;;;9.88;3.55;;;;;;;;;;4973527;28;93418;-72
2023/04/27 01:43:28;;;;;;;8.05;3.78;;;;;;;;;;4956996;28;94070;-73
2023/04/27 01:45:55;;;;;;;7.75;4.10;;;;;;;;;;4973023;28;94665;-72
2023/04/27 01:48:21;;;;;;;6.18;3.20;;;;;;;;;;4961931;28;93899;-72
2023/04/27 01:50:47;;;;;;;6.20;4.30;;;;;;;;;;4967073;28;92481;-72
2023/04/27 01:53:14;;;;;;;9.63;3.90;;;;;;;;;;4972448;28;94758;-72
2023/04/27 01:55:40;;;;;;;7.72;3.80;;;;;;;;;;4972755;28;93893;-73
2023/04/27 01:58:07;;;;;;;5.10;4.05;;;;;;;;;;4976744;28;92736;-73
2023/04/27 02:00:33;;;;;;;7.15;4.32;;;;;;;;;;4972263;28;94750;-73
2023/04/27 02:02:59;;;;;;;5.47;4.00;;;;;;;;;;4971073;28;96731;-73
2023/04/27 02:05:26;;;;;;;5.55;3.92;;;;;;;;;;4972815;28;93274;-73
2023/04/27 02:07:53;;;;;;;6.57;4.70;;;;;;;;;;4974088;28;93610;-72
2023/04/27 02:10:21;;;;;;;6.32;4.35;;;;;;;;;;4973593;28;94508;-72
2023/04/27 02:12:47;;;;;;;7.32;4.40;;;;;;;;;;4970945;28;92488;-72
2023/04/27 02:15:13;;;;;;;8.85;4.10;;;;;;;;;;4972498;28;93818;-72
2023/04/27 02:17:40;;;;;;;8.38;4.00;;;;;;;;;;4975121;28;94856;-72
2023/04/27 02:20:06;;;;;;;8.07;5.00;;;;;;;;;;4972304;28;93434;-72
2023/04/27 02:22:33;;;;;;;7.75;4.10;;;;;;;;;;4971987;28;92461;-72
2023/04/27 02:24:59;;;;;;;8.60;3.78;;;;;;;;;;4956830;28;93077;-72
2023/04/27 02:27:25;;;;;;;11.98;4.10;;;;;;;;;;4968288;28;94099;-73
2023/04/27 02:29:52;;;;;;;4.70;4.00;;;;;;;;;;4975707;28;92844;-72
2023/04/27 02:32:19;;;;;;;6.75;3.88;;;;;;;;;;4976614;28;93241;-72
2023/04/27 02:34:45;;;;;;;9.25;4.53;;;;;;;;;;4957780;28;92706;-72
2023/04/27 02:37:11;;;;;;;7.65;4.28;;;;;;;;;;4974487;28;92599;-72
2023/04/27 02:39:38;;;;;;;6.47;4.25;;;;;;;;;;4977670;28;93021;-72
2023/04/27 02:42:04;;;;;;;6.95;3.70;;;;;;;;;;4974185;28;94873;-72
2023/04/27 02:44:30;;;;;;;8.25;3.78;;;;;;;;;;4976091;28;96036;-73
2023/04/27 02:46:57;;;;;;;5.55;3.70;;;;;;;;;;4975478;28;94390;-72
2023/04/27 02:49:23;;;;;;;7.82;3.90;;;;;;;;;;4975799;28;92449;-72
2023/04/27 02:51:49;;;;;;;4.55;3.70;;;;;;;;;;4975223;28;93447;-72
2023/04/27 02:54:16;;;;;;;8.77;4.07;;;;;;;;;;4975596;28;94245;-72
2023/04/27 02:56:42;;;;;;;12.00;4.78;;;;;;;;;;4975877;28;92628;-72
2023/04/27 02:59:08;;;;;;;10.80;3.63;;;;;;;;;;4975026;28;93274;-72
2023/04/27 03:01:35;;;;;;;6.72;4.05;;;;;;;;;;4978840;28;94242;-72
2023/04/27 03:04:01;;;;;;;6.18;3.67;;;;;;;;;;4975879;28;93570;-72
2023/04/27 03:06:28;;;;;;;7.07;4.43;;;;;;;;;;4973819;28;96899;-73
2023/04/27 03:08:55;;;;;;;10.35;4.60;;;;;;;;;;4974411;28;93009;-73
2023/04/27 03:11:21;;;;;;;5.53;4.05;;;;;;;;;;4974327;28;93239;-72
2023/04/27 03:13:47;;;;;;;10.02;4.40;;;;;;;;;;4975101;28;94459;-74
2023/04/27 03:16:14;;;;;;;7.90;3.78;;;;;;;;;;4975270;28;92550;-72
2023/04/27 03:18:40;;;;;;;8.15;4.35;;;;;;;;;;4976024;28;92390;-72
2023/04/27 03:21:10;;;;;;;6.38;3.95;;;;;;;;;;4969646;28;93430;-72
2023/04/27 03:23:37;;;;;;;10.52;4.90;;;;;;;;;;4978625;28;91743;-73
2023/04/27 03:26:07;;;;;;;7.45;4.28;;;;;;;;;;4975679;28;93405;-73
2023/04/27 03:28:33;;;;;;;7.40;4.35;;;;;;;;;;4976181;28;92411;-73
2023/04/27 03:31:03;;;;;;;5.60;3.85;;;;;;;;;;4972684;28;95288;-72
2023/04/27 03:33:29;;;;;;;7.07;4.05;;;;;;;;;;4976071;28;93502;-72
2023/04/27 03:35:56;;;;;;;7.50;4.28;;;;;;;;;;4974268;28;92486;-73
2023/04/27 03:38:26;;;;;;;6.38;3.78;;;;;;;;;;4964090;28;92997;-72
2023/04/27 03:40:53;;;;;;;5.15;3.75;;;;;;;;;;4966190;28;93524;-73
2023/04/27 03:43:19;;;;;;;8.65;4.22;;;;;;;;;;4974731;28;92494;-72
2023/04/27 03:45:46;;;;;;;5.97;4.13;;;;;;;;;;4977830;28;94030;-72
2023/04/27 03:48:13;;;;;;;7.47;4.18;;;;;;;;;;4975378;28;91722;-72
2023/04/27 03:50:39;;;;;;;5.35;4.18;;;;;;;;;;4973674;28;92588;-72
2023/04/27 03:53:05;;;;;;;7.95;4.63;;;;;;;;;;4975728;28;94508;-72
2023/04/27 03:55:32;;;;;;;8.07;4.43;;;;;;;;;;4972397;28;94943;-72
2023/04/27 03:57:58;;;;;;;4.95;4.10;;;;;;;;;;4974418;28;95564;-72
2023/04/27 04:00:25;;;;;;;7.20;4.25;;;;;;;;;;4974964;28;93855;-72
2023/04/27 04:02:51;;;;;;;9.60;4.50;;;;;;;;;;4975724;28;92467;-72
2023/04/27 04:05:18;;;;;;;6.72;4.10;;;;;;;;;;4972402;28;94105;-72
2023/04/27 04:07:44;;;;;;;4.28;3.53;;;;;;;;;;4977929;28;93442;-73
2023/04/27 04:10:11;;;;;;;5.18;4.22;;;;;;;;;;4974939;28;94490;-73
2023/04/27 04:12:37;;;;;;;6.18;3.83;;;;;;;;;;4975738;28;92636;-72
2023/04/27 04:15:04;;;;;;;5.72;4.10;;;;;;;;;;4974515;28;92582;-73
2023/04/27 04:17:32;;;;;;;6.68;3.92;;;;;;;;;;4970654;28;93640;-73
2023/04/27 04:20:00;;;;;;;5.50;4.18;;;;;;;;;;4963647;28;95919;-72
2023/04/27 04:22:26;;;;;;;5.95;3.95;;;;;;;;;;4956862;28;92605;-71
2023/04/27 04:24:52;;;;;;;6.15;4.10;;;;;;;;;;4956124;28;93307;-72
2023/04/27 04:27:19;;;;;;;6.07;4.50;;;;;;;;;;4977588;28;93357;-72
2023/04/27 04:29:45;;;;;;;5.10;4.13;;;;;;;;;;4974333;28;94274;-73
2023/04/27 04:32:16;;;;;;;5.85;4.03;;;;;;;;;;4974262;28;94267;-72
2023/04/27 04:34:43;;;;;;;8.35;4.55;;;;;;;;;;4967724;28;92502;-72
2023/04/27 04:37:09;;;;;;;8.13;4.20;;;;;;;;;;4975511;28;94104;-72
2023/04/27 04:39:35;;;;;;;6.25;4.53;;;;;;;;;;4974200;28;94368;-72
2023/04/27 04:42:02;;;;;;;8.23;4.95;;;;;;;;;;4974117;28;92483;-72
2023/04/27 04:44:29;;;;;;;8.45;5.30;;;;;;;;;;4956962;28;94858;-72
2023/04/27 04:46:56;;;;;;;7.68;5.00;;;;;;;;;;4974485;28;93466;-72
2023/04/27 04:49:22;;;;;;;6.68;5.22;;;;;;;;;;4974860;28;92989;-72
2023/04/27 04:51:48;;;;;;;9.70;5.28;;;;;;;;;;4961471;28;94509;-72
2023/04/27 04:54:15;;;;;;;10.90;5.65;;;;;;;;;;4965271;28;92402;-72
2023/04/27 04:56:41;;;;;;;10.45;5.30;;;;;;;;;;4974720;28;94516;-71
2023/04/27 04:59:07;;;;;;;8.65;5.22;;;;;;;;;;4972459;28;94458;-73
2023/04/27 05:01:34;;;;;;;9.85;5.47;;;;;;;;;;4973272;28;91930;-73
2023/04/27 05:04:00;;;;;;;12.20;6.20;;;;;;;;;;4969549;28;93506;-72
2023/04/27 05:06:28;;;;;;;11.02;5.80;;;;;;;;;;4955061;28;94439;-73
2023/04/27 05:08:54;;;;;;;9.63;5.07;;;;;;;;;;4955031;28;94827;-72
2023/04/27 05:11:21;;;;;;;10.23;5.90;;;;;;;;;;4975521;28;96187;-73
2023/04/27 05:13:47;;;;;;;7.07;5.22;;;;;;;;;;4974411;28;92490;-73
2023/04/27 05:16:13;;;;;;;13.85;7.35;;;;;;;;;;4973187;28;94061;-73
2023/04/27 05:18:40;;;;;;;13.77;8.50;;;;;;;;;;4974010;28;93969;-73
2023/04/27 05:21:14;;;;;;;18.25;9.77;;;;;;;;;;4966873;28;93363;-73
2023/04/27 05:23:40;;;;;;;14.27;7.97;;;;;;;;;;4954812;28;94225;-72
2023/04/27 05:26:13;;;;;;;9.77;6.43;;;;;;;;;;4960683;28;93771;-72
2023/04/27 05:28:39;;;;;;;13.32;6.32;;;;;;;;;;4973312;28;92556;-72
2023/04/27 05:31:05;;;;;;;11.02;5.85;;;;;;;;;;4971288;28;94203;-73
2023/04/27 05:33:32;;;;;;;10.27;6.30;;;;;;;;;;4967363;28;96849;-72
2023/04/27 05:35:58;;;;;;;8.95;6.45;;;;;;;;;;4968074;28;95579;-73
2023/04/27 05:38:25;;;;;;;9.10;6.03;;;;;;;;;;4973425;28;94550;-72
2023/04/27 05:40:55;;;;;;;8.93;6.90;;;;;;;;;;4958770;28;92497;-73
2023/04/27 05:43:22;;;;;;;16.35;7.75;;;;;;;;;;4971965;28;94105;-73
2023/04/27 05:45:48;;;;;;;14.90;7.53;;;;;;;;;;4960072;28;94442;-73
2023/04/27 05:48:14;;;;;;;19.02;6.78;;;;;;;;;;4971411;28;92669;-73
2023/04/27 05:50:41;;;;;;;12.95;7.22;;;;;;;;;;4966370;28;93190;-73
2023/04/27 05:53:07;;;;;;;13.77;7.05;;;;;;;;;;4972019;28;93514;-73
2023/04/27 05:55:33;;;;;;;9.30;6.90;;;;;;;;;;4975520;28;93476;-73
2023/04/27 05:58:00;;;;;;;11.48;6.60;;;;;;;;;;4970363;28;96315;-72
2023/04/27 06:00:35;;;;;;;13.10;7.57;;;;;;;;;;4964398;28;92494;-72
2023/04/27 06:03:01;;;;;;;14.27;7.82;;;;;;;;;;4964343;28;93155;-72
2023/04/27 06:05:28;;;;;;;14.82;8.15;;;;;;;;;;4975762;28;94439;-72
2023/04/27 06:07:54;;;;;;;14.70;7.60;;;;;;;;;;4975241;28;92873;-74
2023/04/27 06:10:20;;;;;;;20.83;8.77;;;;;;;;;;4975558;28;94274;-72
2023/04/27 06:12:47;;;;;;;19.20;8.52;;;;;;;;;;4976893;28;93471;-73
2023/04/27 06:15:13;;;;;;;18.92;8.10;;;;;;;;;;4974140;28;91698;-74
2023/04/27 06:17:40;;;;;;;13.38;7.57;;;;;;;;;;4979610;28;93626;-74
2023/04/27 06:20:06;;;;;;;13.52;7.20;;;;;;;;;;4974036;28;92587;-72
2023/04/27 06:22:33;;;;;;;14.63;8.25;;;;;;;;;;4973360;28;95137;-72
2023/04/27 06:24:59;;;;;;;16.15;7.65;;;;;;;;;;4972322;28;96003;-73
2023/04/27 06:27:26;;;;;;;16.58;7.47;;;;;;;;;;4978483;28;92493;-72
2023/04/27 06:29:52;;;;;;;19.50;6.75;;;;;;;;;;4972270;28;93635;-74
2023/04/27 06:32:18;;;;;;;14.75;7.55;;;;;;;;;;4976608;28;93508;-74
2023/04/27 06:34:45;;;;;;;15.05;7.45;;;;;;;;;;4974693;28;92475;-73
2023/04/27 06:37:13;;;;;;;12.52;7.32;;;;;;;;;;4978622;28;93336;-75
2023/04/27 06:39:40;;;;;;;21.33;6.93;;;;;;;;;;4967867;28;91769;-77
2023/04/27 06:42:06;;;;;;;14.00;7.45;;;;;;;;;;4957552;28;92483;-76
2023/04/27 06:44:32;;;;;;;10.48;6.28;;;;;;;;;;4962801;28;93593;-76
2023/04/27 06:46:59;;;;;;;23.23;7.65;;;;;;;;;;4979261;28;94882;-76
2023/04/27 06:49:25;;;;;;;18.95;7.15;;;;;;;;;;4971301;28;95542;-77
2023/04/27 06:51:51;;;;;;;12.65;7.05;;;;;;;;;;4976583;28;93536;-79
2023/04/27 06:54:18;;;;;;;13.57;6.82;;;;;;;;;;4974155;28;92643;-77
2023/04/27 06:56:44;;;;;;;23.92;7.07;;;;;;;;;;4966688;28;94359;-76
2023/04/27 06:59:11;;;;;;;16.50;7.22;;;;;;;;;;4969736;28;93425;-77
2023/04/27 07:01:38;;;;;;;14.75;7.35;;;;;;;;;;4964213;28;93026;-77
2023/04/27 07:04:04;;;;;;;11.68;5.80;;;;;;;;;;4967329;28;94604;-78
2023/04/27 07:06:31;;;;;;;11.07;5.47;;;;;;;;;;4973975;28;92511;-77
2023/04/27 07:08:58;;;;;;;11.48;6.25;;;;;;;;;;4955387;28;93174;-78
2023/04/27 07:11:25;;;;;;;8.27;4.93;;;;;;;;;;4971647;28;95907;-76
2023/04/27 07:13:51;;;;;;;14.48;6.22;;;;;;;;;;4955116;28;92485;-78
2023/04/27 07:16:18;;;;;;;10.18;5.15;;;;;;;;;;4959039;28;92815;-77
2023/04/27 07:18:44;;;;;;;11.75;4.57;;;;;;;;;;4971752;28;93533;-78
2023/04/27 07:21:10;;;;;;;14.38;5.15;;;;;;;;;;4963657;28;94155;-78
2023/04/27 07:23:38;;;;;;;7.22;4.22;;;;;;;;;;4960489;28;93782;-77
2023/04/27 07:26:06;;;;;;;8.35;4.00;;;;;;;;;;4974768;28;92484;-77
2023/04/27 07:28:34;;;;;;;15.30;4.05;;;;;;;;;;4976814;28;93136;-77
2023/04/27 07:31:03;;;;;;;5.78;4.30;;;;;;;;;;4976019;28;93208;-77
2023/04/27 07:33:29;;;;;;;6.60;3.90;;;;;;;;;;4975818;28;92454;-77
2023/04/27 07:35:56;;;;;;;8.32;3.88;;;;;;;;;;4974241;28;94781;-78
2023/04/27 07:38:22;;;;;;;9.48;3.65;;;;;;;;;;4975259;28;93439;-78
2023/04/27 07:40:48;;;;;;;12.80;3.63;;;;;;;;;;4975783;28;92435;-78
2023/04/27 07:43:15;;;;;;;13.35;3.88;;;;;;;;;;4978655;28;93318;-78
2023/04/27 07:45:41;;;;;;;9.57;3.45;;;;;;;;;;4975490;28;92413;-78
2023/04/27 07:48:08;;;;;;;11.27;3.78;;;;;;;;;;4975351;28;93221;-78
2023/04/27 07:50:35;;;;;;;9.40;4.25;;;;;;;;;;4973938;28;93393;-78
2023/04/27 07:53:01;;;;;;;8.75;3.65;;;;;;;;;;4976001;28;91635;-78
2023/04/27 07:55:27;;;;;;;4.68;3.10;;;;;;;;;;4975530;28;92760;-79
2023/04/27 07:57:57;;;;;;;4.90;3.15;;;;;;;;;;4975636;28;96720;-78
2023/04/27 08:00:26;;;;;;;7.28;3.25;;;;;;;;;;4969878;28;94909;-79
2023/04/27 08:02:53;;;;;;;22.52;3.78;;;;;;;;;;4976071;28;95714;-78
2023/04/27 08:05:20;;;;;;;4.93;2.88;;;;;;;;;;4987675;28;93606;-77
2023/04/27 08:07:47;;;;;;;9.13;3.10;;;;;;;;;;4960704;28;93119;-78
2023/04/27 08:10:14;;;;;;;7.95;3.00;;;;;;;;;;4955647;28;93539;-78
2023/04/27 08:12:40;;;;;;;11.25;4.63;;;;;;;;;;4955862;28;92516;-77
2023/04/27 08:15:07;;;;;;;6.38;3.45;;;;;;;;;;4955461;28;92988;-75
2023/04/27 08:17:35;;;;;;;5.07;3.40;;;;;;;;;;4967354;28;92906;-77
2023/04/27 08:20:01;;;;;;;8.38;3.25;;;;;;;;;;4965636;28;94175;-75
2023/04/27 08:22:28;;;;;;;8.88;3.10;;;;;;;;;;4967168;28;93271;-75
2023/04/27 08:24:54;;;;;;;5.63;3.38;;;;;;;;;;4957917;28;94970;-75
2023/04/27 08:27:20;;;;;;;5.38;3.17;;;;;;;;;;4966011;28;92560;-75
2023/04/27 08:29:47;;;;;;;6.38;2.60;;;;;;;;;;4972807;28;93573;-73
2023/04/27 08:32:14;;;;;;;5.43;2.88;;;;;;;;;;4974843;28;92704;-73
2023/04/27 08:34:40;;;;;;;6.03;2.50;;;;;;;;;;4969669;28;94199;-70
2023/04/27 08:37:07;;;;;;;6.05;3.13;;;;;;;;;;4968870;28;94379;-72
2023/04/27 08:39:33;;;;;;;7.45;2.92;;;;;;;;;;4955057;28;92683;-76
2023/04/27 08:42:00;;;;;;;4.20;2.35;;;;;;;;;;4955705;28;94073;-75
2023/04/27 08:44:26;;;;;;;4.30;2.40;;;;;;;;;;4954104;28;93545;-74
2023/04/27 08:46:52;;;;;;;7.25;2.97;;;;;;;;;;4970009;28;92508;-77
2023/04/27 08:49:19;;;;;;;6.97;2.70;;;;;;;;;;4970918;28;95811;-72
2023/04/27 08:51:46;;;;;;;6.43;2.97;;;;;;;;;;4974898;28;92415;-73
2023/04/27 08:54:13;;;;;;;7.55;2.58;;;;;;;;;;4967073;28;93901;-73
2023/04/27 08:56:39;;;;;;;10.48;2.83;;;;;;;;;;4973857;28;92516;-74
2023/04/27 08:59:12;;;;;;;5.60;2.17;;;;;;;;;;4967080;28;92434;-75
2023/04/27 09:01:43;;;;;;;13.70;2.53;;;;;;;;;;4974506;28;92558;-75
2023/04/27 09:04:10;;;;;;;3.55;1.88;;;;;;;;;;4972060;28;94574;-79
2023/04/27 09:06:37;;;;;;;6.15;2.08;;;;;;;;;;4965690;28;91714;-79
2023/04/27 09:09:03;;;;;;;4.05;1.98;;;;;;;;;;4958023;28;92512;-73
2023/04/27 09:11:34;;;;;;;3.88;1.95;;;;;;;;;;4961667;28;92487;-75
2023/04/27 09:14:02;;;;;;;9.40;1.88;;;;;;;;;;4955405;28;94911;-76
2023/04/27 09:16:29;;;;;;;5.35;2.10;;;;;;;;;;4972480;28;94726;-75
2023/04/27 09:18:56;;;;;;;5.07;2.20;;;;;;;;;;4974019;28;92465;-78
2023/04/27 09:21:26;;;;;;;5.30;2.00;;;;;;;;;;4967275;28;94166;-77
2023/04/27 09:23:53;;;;;;;6.60;1.92;;;;;;;;;;4955372;28;93982;-76
2023/04/27 09:26:20;;;;;;;4.00;2.00;;;;;;;;;;4962105;28;94204;-76
2023/04/27 09:28:48;;;;;;;3.28;2.10;;;;;;;;;;4965174;28;93856;-77
2023/04/27 09:31:15;;;;;;;3.50;1.98;;;;;;;;;;4976190;28;92757;-76
2023/04/27 09:33:42;;;;;;;5.05;2.28;;;;;;;;;;4973930;28;92612;-76
2023/04/27 09:36:09;;;;;;;3.35;2.10;;;;;;;;;;4965227;28;94244;-75
2023/04/27 09:38:35;;;;;;;2.28;2.08;;;;;;;;;;4969399;28;94952;-77
2023/04/27 09:41:02;;;;;;;3.70;2.17;;;;;;;;;;4967017;28;95558;-76
2023/04/27 09:43:30;;;;;;;7.88;2.53;;;;;;;;;;4973192;28;94218;-72
2023/04/27 09:45:57;;;;;;;5.43;2.67;;;;;;;;;;4971922;28;92667;-71
2023/04/27 09:48:24;;;;;;;4.18;2.60;;;;;;;;;;4977285;28;93412;-71
2023/04/27 09:50:51;;;;;;;4.95;2.88;;;;;;;;;;4962801;28;93565;-72
2023/04/27 09:53:18;;;;;;;7.70;3.35;;;;;;;;;;4960464;28;92497;-72
2023/04/27 09:55:44;;;;;;;8.70;2.92;;;;;;;;;;4973442;28;92771;-72
2023/04/27 09:58:29;;;;;;;11.77;2.80;;;;;;;;;;4977357;28;92449;-71
2023/04/27 10:01:01;;;;;;;4.88;2.65;;;;;;;;;;4968000;28;93464;-73
2023/04/27 10:03:34;;;;;;;5.80;2.50;;;;;;;;;;4972445;28;96952;-72
2023/04/27 10:06:03;;;;;;;6.00;2.50;;;;;;;;;;4966120;28;92558;-73
2023/04/27 10:08:30;;;;;;;4.35;2.38;;;;;;;;;;4957642;28;93142;-72
2023/04/27 10:10:56;;;;;;;7.78;2.83;;;;;;;;;;4957327;28;93601;-74
2023/04/27 10:13:23;;;;;;;5.55;2.80;;;;;;;;;;4957432;28;92460;-75
2023/04/27 10:15:51;;;;;;;6.43;2.90;;;;;;;;;;4973052;28;93203;-72
2023/04/27 10:18:28;;;;;;;5.88;2.80;;;;;;;;;;4964224;28;92575;-73
2023/04/27 10:20:54;;;;;;;3.53;2.50;;;;;;;;;;4972409;28;94268;-74
2023/04/27 10:23:21;;;;;;;6.75;2.90;;;;;;;;;;4957602;28;94458;-76
2023/04/27 10:25:47;;;;;;;5.97;2.70;;;;;;;;;;4968170;28;92569;-75
2023/04/27 10:28:16;;;;;;;5.95;3.00;;;;;;;;;;4984151;28;95407;-75
2023/04/27 10:30:45;;;;;;;6.88;2.65;;;;;;;;;;4964378;28;94438;-76
2023/04/27 10:33:14;;;;;;;4.93;2.85;;;;;;;;;;4963298;28;92574;-76
2023/04/27 10:35:42;;;;;;;3.33;2.67;;;;;;;;;;4976015;28;93273;-75
2023/04/27 10:38:09;;;;;;;10.60;3.30;;;;;;;;;;4975407;28;92799;-73
2023/04/27 10:40:36;;;;;;;6.72;3.40;;;;;;;;;;4975706;28;94255;-72
2023/04/27 10:43:10;;;;;;;4.57;2.85;;;;;;;;;;4956618;28;93062;-73
2023/04/27 10:45:36;;;;;;;6.38;3.17;;;;;;;;;;4971077;28;91717;-74
2023/04/27 10:48:04;;;;;;;3.45;2.22;;;;;;;;;;4969647;28;92541;-75
2023/04/27 10:50:33;;;;;;;9.38;3.08;;;;;;;;;;4971060;28;93679;-74
2023/04/27 10:53:01;;;;;;;9.27;2.78;;;;;;;;;;4966867;28;95022;-73
2023/04/27 10:55:28;;;;;;;6.40;2.38;;;;;;;;;;4962941;28;96932;-73
2023/04/27 10:57:55;;;;;;;7.40;2.92;;;;;;;;;;4979458;28;94475;-74
2023/04/27 11:00:24;;;;;;;9.77;3.40;;;;;;;;;;4976330;28;93345;-74
2023/04/27 11:02:50;;;;;;;5.45;3.63;;;;;;;;;;4974732;28;93434;-74
2023/04/27 11:05:18;;;;;;;4.35;3.28;;;;;;;;;;4974870;28;92461;-76
2023/04/27 11:07:46;;;;;;;6.15;2.92;;;;;;;;;;4964450;28;93629;-75
2023/04/27 11:10:16;;;;;;;6.97;2.90;;;;;;;;;;4966938;28;92798;-74
2023/04/27 11:12:42;;;;;;;3.78;2.83;;;;;;;;;;4975852;28;92417;-75
2023/04/27 11:15:09;;;;;;;7.22;3.42;;;;;;;;;;4967991;28;93121;-74
2023/04/27 11:17:35;;;;;;;3.92;2.80;;;;;;;;;;4962519;28;95862;-75
2023/04/27 11:20:04;;;;;;;8.32;3.13;;;;;;;;;;4969031;28;92545;-76
2023/04/27 11:22:30;;;;;;;8.80;3.20;;;;;;;;;;4960202;28;94428;-75
2023/04/27 11:24:56;;;;;;;6.13;2.55;;;;;;;;;;4970155;28;92516;-75
2023/04/27 11:27:24;;;;;;;4.47;3.25;;;;;;;;;;4968463;28;94170;-75
2023/04/27 11:29:50;;;;;;;36.75;5.25;;;;;;;;;;4965685;28;93484;-74
2023/04/27 11:32:19;;;;;;;9.63;3.63;;;;;;;;;;4964961;28;92548;-74
2023/04/27 11:34:49;;;;;;;13.15;3.00;;;;;;;;;;4965905;28;93765;-75
2023/04/27 11:37:20;;;;;;;5.65;3.35;;;;;;;;;;4958738;28;94561;-74
2023/04/27 11:39:46;;;;;;;10.00;3.45;;;;;;;;;;4968129;28;92413;-74
2023/04/27 11:42:13;;;;;;;6.15;2.95;;;;;;;;;;4966076;28;96146;-76
2023/04/27 11:44:40;;;;;;;7.32;3.47;;;;;;;;;;4962967;28;93730;-75
2023/04/27 11:47:07;;;;;;;5.22;2.88;;;;;;;;;;4963009;28;94455;-76
2023/04/27 11:49:34;;;;;;;7.13;3.38;;;;;;;;;;4974028;28;94959;-76
2023/04/27 11:52:01;;;;;;;5.40;3.45;;;;;;;;;;4975245;28;92459;-76
2023/04/27 11:54:28;;;;;;;8.95;3.42;;;;;;;;;;4975418;28;92992;-76
2023/04/27 11:57:03;;;;;;;5.35;3.28;;;;;;;;;;4975484;28;94862;-76
2023/04/27 11:59:29;;;;;;;4.03;3.17;;;;;;;;;;4975666;28;91746;-76
2023/04/27 12:01:55;;;;;;;5.53;3.35;;;;;;;;;;4974224;28;93359;-76
2023/04/27 12:04:22;;;;;;;5.35;3.30;;;;;;;;;;4978252;28;94171;-76
2023/04/27 12:06:49;;;;;;;9.07;3.60;;;;;;;;;;4973675;28;94747;-76
2023/04/27 12:09:16;;;;;;;7.53;3.40;;;;;;;;;;4972793;28;94664;-76
2023/04/27 12:11:42;;;;;;;4.38;3.55;;;;;;;;;;4955873;28;92710;-76
2023/04/27 12:14:09;;;;;;;6.93;3.20;;;;;;;;;;4955981;28;94132;-76
2023/04/27 12:16:35;;;;;;;4.30;3.55;;;;;;;;;;4960924;28;93407;-76
2023/04/27 12:19:01;;;;;;;10.85;4.07;;;;;;;;;;4974933;28;92468;-76
2023/04/27 12:21:28;;;;;;;4.75;3.53;;;;;;;;;;4965954;28;93170;-76
2023/04/27 12:23:54;;;;;;;4.78;3.40;;;;;;;;;;4956077;28;95467;-76
2023/04/27 12:26:20;;;;;;;4.57;3.42;;;;;;;;;;4958657;28;92465;-76
2023/04/27 12:28:47;;;;;;;7.75;3.42;;;;;;;;;;4955548;28;94381;-76
2023/04/27 12:31:15;;;;;;;5.32;3.72;;;;;;;;;;4954198;28;94828;-76
2023/04/27 12:33:41;;;;;;;7.65;4.20;;;;;;;;;;4955414;28;95645;-76
2023/04/27 12:36:08;;;;;;;9.38;3.83;;;;;;;;;;4955424;28;93134;-76
2023/04/27 12:38:34;;;;;;;7.15;3.72;;;;;;;;;;4955817;28;93002;-76
2023/04/27 12:41:01;;;;;;;5.65;3.70;;;;;;;;;;4953957;28;92559;-76
2023/04/27 12:43:27;;;;;;;7.35;3.40;;;;;;;;;;4955296;28;93965;-76
2023/04/27 12:45:53;;;;;;;8.73;4.22;;;;;;;;;;4958240;28;92519;-76
2023/04/27 12:48:21;;;;;;;11.38;4.05;;;;;;;;;;4974740;28;92696;-76
2023/04/27 12:50:47;;;;;;;7.93;3.50;;;;;;;;;;4972852;28;92446;-76
2023/04/27 12:53:14;;;;;;;7.43;3.72;;;;;;;;;;4974940;28;93233;-76
2023/04/27 12:55:40;;;;;;;9.55;4.25;;;;;;;;;;4972749;28;95867;-76
2023/04/27 12:58:06;;;;;;;6.85;4.22;;;;;;;;;;4974504;28;92397;-76
2023/04/27 13:00:33;;;;;;;5.50;3.50;;;;;;;;;;4974686;28;93139;-76
2023/04/27 13:02:59;;;;;;;8.98;3.95;;;;;;;;;;4974349;28;93982;-76
2023/04/27 13:05:26;;;;;;;8.45;4.03;;;;;;;;;;4974543;28;92550;-76
2023/04/27 13:07:54;;;;;;;10.25;4.22;;;;;;;;;;4977550;28;94310;-76
2023/04/27 13:10:20;;;;;;;6.50;3.67;;;;;;;;;;4974734;28;92884;-76
2023/04/27 13:12:46;;;;;;;6.75;3.22;;;;;;;;;;4974685;28;93504;-75
2023/04/27 13:15:13;;;;;;;4.97;3.78;;;;;;;;;;4974119;28;93394;-76
2023/04/27 13:17:39;;;;;;;8.23;3.50;;;;;;;;;;4974740;28;92471;-76
2023/04/27 13:20:09;;;;;;;5.50;3.60;;;;;;;;;;4972903;28;94847;-76
2023/04/27 13:22:35;;;;;;;8.70;3.58;;;;;;;;;;4972101;28;94944;-72
2023/04/27 13:25:02;;;;;;;7.60;3.33;;;;;;;;;;4961187;28;92600;-74
2023/04/27 13:27:28;;;;;;;5.32;3.50;;;;;;;;;;4961888;28;94541;-71
2023/04/27 13:29:54;;;;;;;7.72;4.05;;;;;;;;;;4966231;28;93406;-72
2023/04/27 13:32:21;;;;;;;5.40;3.92;;;;;;;;;;4974257;28;93142;-72
2023/04/27 13:34:48;;;;;;;9.63;3.80;;;;;;;;;;4971412;28;93624;-74
2023/04/27 13:37:15;;;;;;;4.75;3.25;;;;;;;;;;4967890;28;91724;-74
2023/04/27 13:39:41;;;;;;;5.97;3.75;;;;;;;;;;4960485;28;92601;-73
2023/04/27 13:42:08;;;;;;;9.25;4.35;;;;;;;;;;4966116;28;94631;-75
2023/04/27 13:44:34;;;;;;;4.20;3.70;;;;;;;;;;4955428;28;96981;-74
2023/04/27 13:47:00;;;;;;;10.43;3.97;;;;;;;;;;4966769;28;95487;-74
2023/04/27 13:49:27;;;;;;;12.10;4.40;;;;;;;;;;4969231;28;93468;-73
2023/04/27 13:51:53;;;;;;;7.72;4.00;;;;;;;;;;4975962;28;93880;-74
2023/04/27 13:54:20;;;;;;;5.88;3.42;;;;;;;;;;4966025;28;94457;-74
2023/04/27 13:56:46;;;;;;;7.30;3.83;;;;;;;;;;4958604;28;92733;-74
2023/04/27 13:59:14;;;;;;;7.72;4.00;;;;;;;;;;4955773;28;94168;-74
2023/04/27 14:01:41;;;;;;;6.13;3.90;;;;;;;;;;4959500;28;93307;-73
2023/04/27 14:04:08;;;;;;;6.00;3.38;;;;;;;;;;4966243;28;92557;-73
2023/04/27 14:06:35;;;;;;;9.35;4.07;;;;;;;;;;4968629;28;94106;-74
2023/04/27 14:09:01;;;;;;;6.65;3.45;;;;;;;;;;4956711;28;95633;-73
2023/04/27 14:11:28;;;;;;;6.13;3.55;;;;;;;;;;4971995;28;93721;-73
2023/04/27 14:13:54;;;;;;;9.48;3.40;;;;;;;;;;4964536;28;94426;-73
2023/04/27 14:16:23;;;;;;;7.35;4.03;;;;;;;;;;4962261;28;93276;-73
2023/04/27 14:18:51;;;;;;;7.65;3.63;;;;;;;;;;4963819;28;93081;-73
2023/04/27 14:21:17;;;;;;;5.10;3.50;;;;;;;;;;4969446;28;94391;-73
2023/04/27 14:23:43;;;;;;;5.05;3.47;;;;;;;;;;4973044;28;92455;-73
2023/04/27 14:26:10;;;;;;;5.97;3.30;;;;;;;;;;4966087;28;94126;-73
2023/04/27 14:28:36;;;;;;;4.18;3.45;;;;;;;;;;4965632;28;92536;-73
2023/04/27 14:31:02;;;;;;;7.07;3.90;;;;;;;;;;4965878;28;92791;-74
2023/04/27 14:33:29;;;;;;;8.93;3.88;;;;;;;;;;4962612;28;95650;-74
2023/04/27 14:35:55;;;;;;;9.18;4.25;;;;;;;;;;4972613;28;93517;-73
2023/04/27 14:38:21;;;;;;;11.20;4.03;;;;;;;;;;4970245;28;94274;-73